createdAt,value
2017-06-24T00:01:51.800Z,18.40
2017-06-24T00:04:20.231Z,18.40
2017-06-24T00:06:48.679Z,18.40
2017-06-24T00:09:17.108Z,18.40
2017-06-24T00:11:45.586Z,18.40
2017-06-24T00:14:14.033Z,18.50
2017-06-24T00:16:42.466Z,18.60
2017-06-24T00:19:10.898Z,18.60
2017-06-24T00:21:39.427Z,18.60
2017-06-24T00:24:07.892Z,18.50
2017-06-24T00:26:36.412Z,18.40
2017-06-24T00:29:05.603Z,18.50
2017-06-24T00:31:34.827Z,18.40
2017-06-24T00:34:03.248Z,18.40
2017-06-24T00:36:31.694Z,18.40
2017-06-24T00:39:00.135Z,18.40
2017-06-24T00:41:28.647Z,18.40
2017-06-24T00:43:57.084Z,18.40
2017-06-24T00:46:25.506Z,18.30
2017-06-24T00:48:53.950Z,18.20
2017-06-24T00:51:22.475Z,18.20
2017-06-24T00:53:50.907Z,18.20
2017-06-24T00:56:19.343Z,18.20
2017-06-24T00:58:47.799Z,18.20
2017-06-24T01:01:17.020Z,18.40
2017-06-24T01:03:45.530Z,18.30
2017-06-24T01:06:13.951Z,18.50
2017-06-24T01:08:42.404Z,18.60
2017-06-24T01:11:10.895Z,18.60
2017-06-24T01:13:39.324Z,18.80
2017-06-24T01:16:08.534Z,19.00
2017-06-24T01:18:37.070Z,19.00
2017-06-24T01:21:05.691Z,19.00
2017-06-24T01:23:34.874Z,19.10
2017-06-24T01:26:04.190Z,19.00
2017-06-24T01:28:33.375Z,19.00
2017-06-24T01:31:02.575Z,18.90
2017-06-24T01:33:31.912Z,18.80
2017-06-24T01:36:00.341Z,18.80
2017-06-24T01:38:28.863Z,18.60
2017-06-24T01:40:57.987Z,18.40
2017-06-24T01:43:26.438Z,18.30
2017-06-24T01:45:55.644Z,18.00
2017-06-24T01:48:24.098Z,18.00
2017-06-24T01:50:52.198Z,17.80
2017-06-24T01:53:20.630Z,17.80
2017-06-24T01:55:49.878Z,17.70
2017-06-24T01:58:18.555Z,17.70
2017-06-24T02:00:47.768Z,17.70
2017-06-24T02:03:16.307Z,17.60
2017-06-24T02:05:44.418Z,17.80
2017-06-24T02:08:12.895Z,17.70
2017-06-24T02:10:42.305Z,17.90
2017-06-24T02:13:11.435Z,17.80
2017-06-24T02:15:39.875Z,17.90
2017-06-24T02:18:09.094Z,17.90
2017-06-24T02:20:37.539Z,17.90
2017-06-24T02:23:05.987Z,18.00
2017-06-24T02:25:34.410Z,18.20
2017-06-24T02:28:03.619Z,18.10
2017-06-24T02:30:32.815Z,18.10
2017-06-24T02:33:02.031Z,18.10
2017-06-24T02:35:30.451Z,18.00
2017-06-24T02:37:58.907Z,18.00
2017-06-24T02:40:27.351Z,18.00
2017-06-24T02:42:56.552Z,18.00
2017-06-24T02:45:25.763Z,17.90
2017-06-24T02:47:54.958Z,18.10
2017-06-24T02:50:24.267Z,18.20
2017-06-24T02:52:53.474Z,18.20
2017-06-24T02:55:21.910Z,18.10
2017-06-24T02:57:50.400Z,18.30
2017-06-24T03:00:18.915Z,18.30
2017-06-24T03:02:48.128Z,18.40
2017-06-24T03:05:16.558Z,18.30
2017-06-24T03:07:45.003Z,18.40
2017-06-24T03:10:13.424Z,18.30
2017-06-24T03:12:43.091Z,18.30
2017-06-24T03:15:11.538Z,18.30
2017-06-24T03:17:40.739Z,18.30
2017-06-24T03:20:09.935Z,18.30
2017-06-24T03:22:38.374Z,18.20
2017-06-24T03:25:06.819Z,18.30
2017-06-24T03:27:36.019Z,18.50
2017-06-24T03:30:04.457Z,18.50
2017-06-24T03:32:32.984Z,18.50
2017-06-24T03:35:02.207Z,18.70
2017-06-24T03:37:30.643Z,18.60
2017-06-24T03:39:59.955Z,18.80
2017-06-24T03:42:29.174Z,18.80
2017-06-24T03:44:57.606Z,18.80
2017-06-24T03:47:26.055Z,18.80
2017-06-24T03:49:54.482Z,18.80
2017-06-24T03:52:22.943Z,18.80
2017-06-24T03:54:51.383Z,18.90
2017-06-24T03:57:19.915Z,18.80
2017-06-24T03:59:48.364Z,18.90
2017-06-24T04:02:16.790Z,18.80
2017-06-24T04:04:45.255Z,18.90
2017-06-24T04:07:13.689Z,19.00
2017-06-24T04:09:42.107Z,19.10
2017-06-24T04:12:10.551Z,19.10
2017-06-24T04:14:39.001Z,19.10
2017-06-24T04:17:07.458Z,19.10
2017-06-24T04:19:35.863Z,19.20
2017-06-24T04:22:04.304Z,19.40
2017-06-24T04:24:32.724Z,19.50
2017-06-24T04:27:01.153Z,19.50
2017-06-24T04:29:29.582Z,19.50
2017-06-24T04:31:58.095Z,19.50
2017-06-24T04:34:27.398Z,19.70
2017-06-24T04:36:56.595Z,19.60
2017-06-24T04:39:25.038Z,19.50
2017-06-24T04:41:53.601Z,19.70
2017-06-24T04:44:22.026Z,19.80
2017-06-24T04:46:51.443Z,19.90
2017-06-24T04:49:20.747Z,19.90
2017-06-24T04:51:49.175Z,19.90
2017-06-24T04:54:17.659Z,19.90
2017-06-24T04:56:46.110Z,20.00
2017-06-24T04:59:14.540Z,20.10
2017-06-24T05:01:42.999Z,20.00
2017-06-24T05:04:11.423Z,20.10
2017-06-24T05:06:40.688Z,20.10
2017-06-24T05:09:09.902Z,20.10
2017-06-24T05:11:38.395Z,20.20
2017-06-24T05:14:06.815Z,20.20
2017-06-24T05:16:35.267Z,20.10
2017-06-24T05:19:04.465Z,20.30
2017-06-24T05:21:33.663Z,20.20
2017-06-24T05:24:02.116Z,20.10
2017-06-24T05:26:30.539Z,20.10
2017-06-24T05:28:59.754Z,20.10
2017-06-24T05:31:28.183Z,20.10
2017-06-24T05:33:56.618Z,20.10
2017-06-24T05:36:24.842Z,20.10
2017-06-24T05:38:53.359Z,20.10
2017-06-24T05:41:22.558Z,20.20
2017-06-24T05:43:51.923Z,20.10
2017-06-24T05:46:20.354Z,20.10
2017-06-24T05:48:48.794Z,20.20
2017-06-24T05:51:17.214Z,20.30
2017-06-24T05:53:45.647Z,20.30
2017-06-24T05:56:14.205Z,20.50
2017-06-24T05:58:42.778Z,20.70
2017-06-24T06:01:11.212Z,21.00
2017-06-24T06:03:39.663Z,21.30
2017-06-24T06:06:08.103Z,21.40
2017-06-24T06:08:37.342Z,21.80
2017-06-24T06:11:05.815Z,21.70
2017-06-24T06:13:34.473Z,21.90
2017-06-24T06:16:03.687Z,21.90
2017-06-24T06:18:32.120Z,22.00
2017-06-24T06:21:00.942Z,22.00
2017-06-24T06:23:29.522Z,21.90
2017-06-24T06:25:58.742Z,21.50
2017-06-24T06:28:27.195Z,21.40
2017-06-24T06:30:56.511Z,21.40
2017-06-24T06:33:25.719Z,21.40
2017-06-24T06:35:54.168Z,21.40
2017-06-24T06:38:22.978Z,21.50
2017-06-24T06:40:51.415Z,21.70
2017-06-24T06:43:20.238Z,21.70
2017-06-24T06:45:49.451Z,21.70
2017-06-24T06:48:18.276Z,21.70
2017-06-24T06:50:46.713Z,21.90
2017-06-24T06:53:15.207Z,21.90
2017-06-24T06:55:43.630Z,21.80
2017-06-24T06:58:12.075Z,21.90
2017-06-24T07:00:40.519Z,22.00
2017-06-24T07:03:08.953Z,22.20
2017-06-24T07:05:37.387Z,22.10
2017-06-24T07:08:05.830Z,22.10
2017-06-24T07:10:34.260Z,21.90
2017-06-24T07:13:02.708Z,22.20
2017-06-24T07:15:31.139Z,22.20
2017-06-24T07:17:59.600Z,22.10
2017-06-24T07:20:28.040Z,22.30
2017-06-24T07:22:56.483Z,22.20
2017-06-24T07:25:24.915Z,22.20
2017-06-24T07:27:53.339Z,22.20
2017-06-24T07:30:21.775Z,22.20
2017-06-24T07:32:50.317Z,22.40
2017-06-24T07:35:19.519Z,22.70
2017-06-24T07:37:47.951Z,22.70
2017-06-24T07:40:16.397Z,22.70
2017-06-24T07:42:44.839Z,22.70
2017-06-24T07:45:13.315Z,22.80
2017-06-24T07:47:41.746Z,23.00
2017-06-24T07:50:10.198Z,23.20
2017-06-24T07:52:39.387Z,23.40
2017-06-24T07:55:08.588Z,23.40
2017-06-24T07:57:37.808Z,23.20
2017-06-24T08:00:06.758Z,23.20
2017-06-24T08:02:35.189Z,23.50
2017-06-24T08:05:03.638Z,23.60
2017-06-24T08:07:32.844Z,23.30
2017-06-24T08:10:01.298Z,23.00
2017-06-24T08:12:30.342Z,22.90
2017-06-24T08:14:58.771Z,22.80
2017-06-24T08:17:27.203Z,22.40
2017-06-24T08:19:55.682Z,22.60
2017-06-24T08:22:24.894Z,22.80
2017-06-24T08:24:53.323Z,22.90
2017-06-24T08:27:21.787Z,22.90
2017-06-24T08:29:50.454Z,23.10
2017-06-24T08:32:18.867Z,23.10
2017-06-24T08:34:47.307Z,23.10
2017-06-24T08:37:15.752Z,22.80
2017-06-24T08:39:44.291Z,23.00
2017-06-24T08:42:13.115Z,23.30
2017-06-24T08:44:41.543Z,23.30
2017-06-24T08:47:10.012Z,23.30
2017-06-24T08:49:38.441Z,23.50
2017-06-24T08:52:07.282Z,24.00
2017-06-24T08:54:35.712Z,23.50
2017-06-24T08:57:04.222Z,23.30
2017-06-24T08:59:33.452Z,23.50
2017-06-24T09:02:01.916Z,23.50
2017-06-24T09:04:30.371Z,23.40
2017-06-24T09:06:58.825Z,23.30
2017-06-24T09:09:27.281Z,22.90
2017-06-24T09:11:55.702Z,23.10
2017-06-24T09:14:24.149Z,23.50
2017-06-24T09:16:52.608Z,23.40
2017-06-24T09:19:21.817Z,23.40
2017-06-24T09:21:50.261Z,23.40
2017-06-24T09:24:18.694Z,23.40
2017-06-24T09:26:47.148Z,24.00
2017-06-24T09:29:15.563Z,24.00
2017-06-24T09:31:43.994Z,23.80
2017-06-24T09:34:12.442Z,24.40
2017-06-24T09:36:40.883Z,24.10
2017-06-24T09:39:09.337Z,23.60
2017-06-24T09:41:37.773Z,23.50
2017-06-24T09:44:06.224Z,23.70
2017-06-24T09:46:34.666Z,23.70
2017-06-24T09:49:03.096Z,23.90
2017-06-24T09:51:31.551Z,23.90
2017-06-24T09:53:59.779Z,24.00
2017-06-24T09:56:28.253Z,24.00
2017-06-24T09:58:56.716Z,24.30
2017-06-24T10:01:25.128Z,24.30
2017-06-24T10:03:53.570Z,24.20
2017-06-24T10:06:22.011Z,24.30
2017-06-24T10:08:50.435Z,24.20
2017-06-24T10:11:18.874Z,24.50
2017-06-24T10:13:47.324Z,24.70
2017-06-24T10:16:15.770Z,24.10
2017-06-24T10:18:44.191Z,24.30
2017-06-24T10:21:12.612Z,24.20
2017-06-24T10:23:41.071Z,24.70
2017-06-24T10:26:09.528Z,24.90
2017-06-24T10:28:37.975Z,24.90
2017-06-24T10:31:06.407Z,24.90
2017-06-24T10:33:34.831Z,25.00
2017-06-24T10:36:03.295Z,24.90
2017-06-24T10:38:31.724Z,25.20
2017-06-24T10:41:00.160Z,25.30
2017-06-24T10:43:28.640Z,25.30
2017-06-24T10:45:57.888Z,25.70
2017-06-24T10:48:26.306Z,25.80
2017-06-24T10:50:55.420Z,25.70
2017-06-24T10:53:23.862Z,25.50
2017-06-24T10:55:52.282Z,25.50
2017-06-24T10:58:20.752Z,25.70
2017-06-24T11:00:49.195Z,25.90
2017-06-24T11:03:17.663Z,25.90
2017-06-24T11:05:46.115Z,26.00
2017-06-24T11:08:14.946Z,25.70
2017-06-24T11:10:43.382Z,25.90
2017-06-24T11:13:11.799Z,26.00
2017-06-24T11:15:40.254Z,26.10
2017-06-24T11:18:08.664Z,26.10
2017-06-24T11:20:37.818Z,26.10
2017-06-24T11:23:06.508Z,26.20
2017-06-24T11:25:34.963Z,26.30
2017-06-24T11:28:03.390Z,26.60
2017-06-24T11:30:31.848Z,27.00
2017-06-24T11:33:00.319Z,26.80
2017-06-24T11:35:28.795Z,26.80
2017-06-24T11:37:57.232Z,26.80
2017-06-24T11:40:25.663Z,27.20
2017-06-24T11:42:54.110Z,27.10
2017-06-24T11:45:22.575Z,27.30
2017-06-24T11:47:51.043Z,27.40
2017-06-24T11:50:19.501Z,27.30
2017-06-24T11:52:47.978Z,27.40
2017-06-24T11:55:16.404Z,27.80
2017-06-24T11:57:44.851Z,27.60
2017-06-24T12:00:13.272Z,27.50
2017-06-24T12:02:42.891Z,27.80
2017-06-24T12:05:11.335Z,28.20
2017-06-24T12:07:39.794Z,27.70
2017-06-24T12:10:08.219Z,27.80
2017-06-24T12:12:36.658Z,28.50
2017-06-24T12:15:05.182Z,28.30
2017-06-24T12:17:34.005Z,28.20
2017-06-24T12:20:02.576Z,28.30
2017-06-24T12:22:31.025Z,28.50
2017-06-24T12:24:59.438Z,28.80
2017-06-24T12:27:27.906Z,28.40
2017-06-24T12:29:56.343Z,28.40
2017-06-24T12:32:25.175Z,28.60
2017-06-24T12:34:53.631Z,28.30
2017-06-24T12:37:22.047Z,28.50
2017-06-24T12:39:50.576Z,28.90
2017-06-24T12:42:19.015Z,28.70
2017-06-24T12:44:47.451Z,28.50
2017-06-24T12:47:15.903Z,28.80
2017-06-24T12:49:44.311Z,28.90
2017-06-24T12:52:12.760Z,28.40
2017-06-24T12:54:41.229Z,28.50
2017-06-24T12:57:09.646Z,28.90
2017-06-24T12:59:38.091Z,28.60
2017-06-24T13:02:06.521Z,29.10
2017-06-24T13:04:35.640Z,29.70
2017-06-24T13:07:04.068Z,29.20
2017-06-24T13:09:32.520Z,29.70
2017-06-24T13:12:00.978Z,30.20
2017-06-24T13:14:30.474Z,30.80
2017-06-24T13:16:59.237Z,30.60
2017-06-24T13:19:27.667Z,29.80
2017-06-24T13:21:56.111Z,30.10
2017-06-24T13:24:24.561Z,30.10
2017-06-24T13:26:53.084Z,30.00
2017-06-24T13:29:21.527Z,30.40
2017-06-24T13:31:49.992Z,30.30
2017-06-24T13:34:18.431Z,30.70
2017-06-24T13:36:46.854Z,30.70
2017-06-24T13:39:15.300Z,30.50
2017-06-24T13:41:43.747Z,30.40
2017-06-24T13:44:12.219Z,30.70
2017-06-24T13:46:41.447Z,29.40
2017-06-24T13:49:10.046Z,29.90
2017-06-24T13:51:38.488Z,30.30
2017-06-24T13:54:06.949Z,29.90
2017-06-24T13:56:35.789Z,30.60
2017-06-24T13:59:04.211Z,31.00
2017-06-24T14:01:32.674Z,30.10
2017-06-24T14:04:01.104Z,29.90
2017-06-24T14:06:29.539Z,29.20
2017-06-24T14:08:57.999Z,28.70
2017-06-24T14:11:26.455Z,29.50
2017-06-24T14:13:54.766Z,29.10
2017-06-24T14:16:23.186Z,28.60
2017-06-24T14:18:52.026Z,29.30
2017-06-24T14:21:20.455Z,29.30
2017-06-24T14:23:48.919Z,29.70
2017-06-24T14:26:17.375Z,29.50
2017-06-24T14:28:45.787Z,28.90
2017-06-24T14:31:14.224Z,29.90
2017-06-24T14:33:43.071Z,30.70
2017-06-24T14:36:11.504Z,30.70
2017-06-24T14:38:39.947Z,30.60
2017-06-24T14:41:08.444Z,31.40
2017-06-24T14:43:36.879Z,31.40
2017-06-24T14:46:05.313Z,31.40
2017-06-24T14:48:33.768Z,31.50
2017-06-24T14:51:02.208Z,32.00
2017-06-24T14:53:31.415Z,31.10
2017-06-24T14:55:59.864Z,31.10
2017-06-24T14:58:28.316Z,31.00
2017-06-24T15:00:56.819Z,31.10
2017-06-24T15:03:25.266Z,31.30
2017-06-24T15:05:53.719Z,32.00
2017-06-24T15:08:22.161Z,31.90
2017-06-24T15:10:50.603Z,31.40
2017-06-24T15:13:19.039Z,31.70
2017-06-24T15:15:47.495Z,31.90
2017-06-24T15:18:15.923Z,32.80
2017-06-24T15:20:44.002Z,32.80
2017-06-24T15:23:12.439Z,32.70
2017-06-24T15:25:40.858Z,33.20
2017-06-24T15:28:09.318Z,32.80
2017-06-24T15:30:37.707Z,30.00
2017-06-24T15:33:06.160Z,29.30
2017-06-24T15:35:35.278Z,29.70
2017-06-24T15:38:04.487Z,30.20
2017-06-24T15:40:33.012Z,30.50
2017-06-24T15:43:01.463Z,30.90
2017-06-24T15:45:29.896Z,31.60
2017-06-24T15:47:58.310Z,31.70
2017-06-24T15:50:26.759Z,30.60
2017-06-24T15:52:55.206Z,30.20
2017-06-24T15:55:23.655Z,31.30
2017-06-24T15:57:52.103Z,31.10
2017-06-24T16:00:20.538Z,30.30
2017-06-24T16:02:48.982Z,30.20
2017-06-24T16:05:17.486Z,30.70
2017-06-24T16:07:47.403Z,31.20
2017-06-24T16:10:16.223Z,31.40
2017-06-24T16:12:45.439Z,31.40
2017-06-24T16:15:14.267Z,30.50
2017-06-24T16:17:43.551Z,29.00
2017-06-24T16:20:12.401Z,29.30
2017-06-24T16:22:41.230Z,29.00
2017-06-24T16:25:10.442Z,28.70
2017-06-24T16:27:39.267Z,29.40
2017-06-24T16:30:08.509Z,30.00
2017-06-24T16:32:37.348Z,28.90
2017-06-24T16:35:06.539Z,29.20
2017-06-24T16:37:35.368Z,29.40
2017-06-24T16:40:04.199Z,30.10
2017-06-24T16:42:33.389Z,30.80
2017-06-24T16:45:02.281Z,30.80
2017-06-24T16:47:31.481Z,30.50
2017-06-24T16:50:00.326Z,30.30
2017-06-24T16:52:29.163Z,30.80
2017-06-24T16:54:57.989Z,31.10
2017-06-24T16:57:26.436Z,31.20
2017-06-24T16:59:55.715Z,30.80
2017-06-24T17:02:24.529Z,30.00
2017-06-24T17:04:53.758Z,29.60
2017-06-24T17:07:23.087Z,30.40
2017-06-24T17:09:51.543Z,30.60
2017-06-24T17:12:20.766Z,31.20
2017-06-24T17:14:49.587Z,30.70
2017-06-24T17:17:18.788Z,30.80
2017-06-24T17:19:47.638Z,30.70
2017-06-24T17:22:16.478Z,30.20
2017-06-24T17:24:45.730Z,29.70
2017-06-24T17:27:14.540Z,30.20
2017-06-24T17:29:43.739Z,30.10
2017-06-24T17:32:12.556Z,30.60
2017-06-24T17:34:41.776Z,30.50
2017-06-24T17:37:10.615Z,29.70
2017-06-24T17:39:39.803Z,29.00
2017-06-24T17:42:09.000Z,29.20
2017-06-24T17:44:38.200Z,28.50
2017-06-24T17:47:07.020Z,29.00
2017-06-24T17:49:36.228Z,29.30
2017-06-24T17:52:05.212Z,29.20
2017-06-24T17:55:11.888Z,29.00
2017-06-24T17:57:40.335Z,28.50
2017-06-24T18:00:08.768Z,27.80
2017-06-24T18:02:37.214Z,27.60
2017-06-24T18:05:06.423Z,27.00
2017-06-24T18:07:35.631Z,26.90
2017-06-24T18:10:04.083Z,26.80
2017-06-24T18:12:33.292Z,26.40
2017-06-24T18:15:02.489Z,26.10
2017-06-24T18:17:31.715Z,25.70
2017-06-24T18:20:00.187Z,25.60
2017-06-24T18:22:28.678Z,25.60
2017-06-24T18:24:57.139Z,25.30
2017-06-24T18:27:25.585Z,25.30
2017-06-24T18:29:54.043Z,25.10
2017-06-24T18:32:22.474Z,25.10
2017-06-24T18:34:50.948Z,25.10
2017-06-24T18:37:19.420Z,25.10
2017-06-24T18:39:47.913Z,25.10
2017-06-24T18:42:16.359Z,25.00
2017-06-24T18:44:44.783Z,24.90
2017-06-24T18:47:13.198Z,24.90
2017-06-24T18:49:41.685Z,24.70
2017-06-24T18:52:10.159Z,24.60
2017-06-24T18:54:38.645Z,24.70
2017-06-24T18:57:07.070Z,24.70
2017-06-24T18:59:35.611Z,24.60
2017-06-24T19:02:04.055Z,24.60
2017-06-24T19:04:32.481Z,24.40
2017-06-24T19:07:00.907Z,24.40
2017-06-24T19:09:29.345Z,24.30
2017-06-24T19:11:57.893Z,24.20
2017-06-24T19:14:26.314Z,24.10
2017-06-24T19:16:54.779Z,24.20
2017-06-24T19:19:23.222Z,24.20
2017-06-24T19:21:51.653Z,24.00
2017-06-24T19:24:20.088Z,23.90
2017-06-24T19:26:48.518Z,23.90
2017-06-24T19:29:17.035Z,23.80
2017-06-24T19:31:45.485Z,23.80
2017-06-24T19:34:14.038Z,23.60
2017-06-24T19:36:42.476Z,23.60
2017-06-24T19:39:10.901Z,23.50
2017-06-24T19:41:39.427Z,23.40
2017-06-24T19:44:07.974Z,23.40
2017-06-24T19:46:36.415Z,23.30
2017-06-24T19:49:04.831Z,23.30
2017-06-24T19:51:33.248Z,23.20
2017-06-24T19:54:01.695Z,23.10
2017-06-24T19:56:30.139Z,23.00
2017-06-24T19:58:58.577Z,23.00
2017-06-24T20:01:26.994Z,22.90
2017-06-24T20:03:55.447Z,22.90
2017-06-24T20:06:23.887Z,22.90
2017-06-24T20:08:52.308Z,22.80
2017-06-24T20:11:20.751Z,22.80
2017-06-24T20:13:49.176Z,22.70
2017-06-24T20:16:17.622Z,22.40
2017-06-24T20:18:46.048Z,22.20
2017-06-24T20:21:14.516Z,22.20
2017-06-24T20:23:42.963Z,22.10
2017-06-24T20:26:11.387Z,22.00
2017-06-24T20:28:39.842Z,21.90
2017-06-24T20:31:08.307Z,21.70
2017-06-24T20:33:36.759Z,21.60
2017-06-24T20:36:05.183Z,21.60
2017-06-24T20:38:33.611Z,21.60
2017-06-24T20:41:02.069Z,21.40
2017-06-24T20:43:30.500Z,21.30
2017-06-24T20:45:58.962Z,21.20
2017-06-24T20:48:27.390Z,21.00
2017-06-24T20:50:55.841Z,20.90
2017-06-24T20:53:24.286Z,20.70
2017-06-24T20:55:52.735Z,20.60
2017-06-24T20:58:21.276Z,20.60
2017-06-24T21:00:49.688Z,20.30
2017-06-24T21:03:18.147Z,20.40
2017-06-24T21:05:46.539Z,20.40
2017-06-24T21:08:15.003Z,20.40
2017-06-24T21:10:43.486Z,20.40
2017-06-24T21:13:11.934Z,20.40
2017-06-24T21:15:40.355Z,20.20
2017-06-24T21:18:08.797Z,20.20
2017-06-24T21:20:37.222Z,20.00
2017-06-24T21:23:05.678Z,20.10
2017-06-24T21:25:34.199Z,20.00
2017-06-24T21:28:02.628Z,19.90
2017-06-24T21:30:31.060Z,19.90
2017-06-24T21:32:59.538Z,19.90
2017-06-24T21:35:27.979Z,19.80
2017-06-24T21:37:56.421Z,19.70
2017-06-24T21:40:24.847Z,19.80
2017-06-24T21:42:53.290Z,19.80
2017-06-24T21:45:21.766Z,19.90
2017-06-24T21:47:50.196Z,20.00
2017-06-24T21:50:18.646Z,19.90
2017-06-24T21:52:47.772Z,19.90
2017-06-24T21:55:16.207Z,19.90
2017-06-24T21:57:44.626Z,19.70
2017-06-24T22:00:13.097Z,19.60
2017-06-24T22:02:41.550Z,19.40
2017-06-24T22:05:10.069Z,19.40
2017-06-24T22:07:38.507Z,19.40
2017-06-24T22:10:06.968Z,19.30
2017-06-24T22:12:35.490Z,19.10
2017-06-24T22:15:03.949Z,19.20
2017-06-24T22:17:32.370Z,19.20
2017-06-24T22:20:00.807Z,19.10
2017-06-24T22:22:29.250Z,19.10
2017-06-24T22:24:57.708Z,18.90
2017-06-24T22:27:26.264Z,18.80
2017-06-24T22:29:54.794Z,18.80
2017-06-24T22:32:23.262Z,18.90
2017-06-24T22:34:51.706Z,18.80
2017-06-24T22:37:20.135Z,18.70
2017-06-24T22:39:48.597Z,18.80
2017-06-24T22:42:17.020Z,18.80
2017-06-24T22:44:45.475Z,18.80
2017-06-24T22:47:13.930Z,18.60
2017-06-24T22:49:42.362Z,18.60
2017-06-24T22:52:10.820Z,18.60
2017-06-24T22:54:39.275Z,18.50
2017-06-24T22:57:07.755Z,18.40
2017-06-24T22:59:36.258Z,18.40
2017-06-24T23:02:04.691Z,18.30
2017-06-24T23:04:33.107Z,18.20
2017-06-24T23:07:02.451Z,18.10
2017-06-24T23:09:30.895Z,18.20
2017-06-24T23:11:59.348Z,18.20
2017-06-24T23:14:27.834Z,18.20
2017-06-24T23:16:56.294Z,18.20
2017-06-24T23:19:24.711Z,18.20
2017-06-24T23:21:53.136Z,18.20
2017-06-24T23:24:21.567Z,18.10
2017-06-24T23:26:50.771Z,18.00
2017-06-24T23:29:19.608Z,18.00
2017-06-24T23:31:48.118Z,18.00
2017-06-24T23:34:16.598Z,18.00
2017-06-24T23:36:45.073Z,17.90
2017-06-24T23:39:13.512Z,17.80
2017-06-24T23:41:41.930Z,17.80
2017-06-24T23:44:10.406Z,17.70
2017-06-24T23:46:38.952Z,17.70
2017-06-24T23:49:07.392Z,17.70
2017-06-24T23:51:35.814Z,17.70
2017-06-24T23:54:04.283Z,17.80
2017-06-24T23:56:32.746Z,17.80
2017-06-24T23:59:01.958Z,17.70
